Welcome to this demonstration website - Welkom op de demo website - Bienvenue sur ce site de démonstration - Willkommen auf dieser Demonstration Website


my webcam  My webcam


thunder radar more information blitzortung!


rain radar more information rain snow radar


visit our other weather sites:

Template documentation
and downloads

And another site



nearby metar reports

   
EBAW - Antwerp
updated: 20-04-2018 14:20
clear  
clear  
   wind: wnw 14.8 km/h
wind: wnw 14.8 km/h
temperature: 26°C
dew point: 12°C
humidity: 42%
barometer: 1022 hPa
visibility: More than 10 km
cloud details: clear m
EBAW 201220Z 29008KT 230V320 CAVOK 26/12 Q1022 NOSIG
EBLG - Liège
updated: 20-04-2018 14:20
few clouds  
few clouds  
   wind: west 9.3 km/h
wind: west 9.3 km/h
temperature: 26°C
dew point: 12°C
humidity: 42%
barometer: 1023 hPa
clouds: Few Clouds
visibility: More than 10 km
cloud details: few clouds 1219.2 m
EBLG 201220Z 27005KT 220V320 9999 FEW040 26/12 Q1023 NOSIG
EBCV - Mons/Bergen
updated: 20-04-2018 13:55
clear  
clear  
   wind: west 9.3 km/h
wind: west 9.3 km/h
temperature: 26°C
dew point: 13°C
humidity: 45%
barometer: 1023 hPa
clouds: Clear
visibility: More than 10 km
cloud details: clear m
EBCV 201155Z AUTO 28005KT 9999 NCD 26/13 Q1023 BLU
EHBK - Maastricht
updated: 20-04-2018 14:25
partly cloudy  
partly cloudy  
   wind: wsw 13 km/h
wind: wsw 13 km/h
temperature: 26°C
dew point: 11°C
humidity: 39%
barometer: 1022 hPa
clouds: Partly Cloudy
visibility: More than 10 km
cloud details: partly cloudy m
EHBK 201225Z AUTO 24007KT 200V290 9999 NSC 26/11 Q1022 NOSIG
ELLX - Luxemburg
updated: 20-04-2018 14:20
clear  
clear  
   wind: varies 9.3 km/h
wind: varies 9.3 km/h
temperature: 26°C
dew point: 6°C
humidity: 28%
barometer: 1024 hPa
visibility: More than 10 km
cloud details: clear m
ELLX 201220Z VRB05KT CAVOK 26/06 Q1024 NOSIG
EBOS - Oostende
updated: 20-04-2018 14:20
few clouds  
few clouds  
   wind: west 16.7 km/h
wind: west 16.7 km/h
temperature: 18°C
dew point: 9°C
humidity: 56%
barometer: 1024 hPa
clouds: Few Clouds
visibility: More than 10 km
cloud details: few clouds 975.4 m
EBOS 201220Z 28009KT 9999 FEW032 18/09 Q1024 NOSIG

script developed by  Saratoga-weather.org adapted for the template by  Weerstation Leuven

you find our weather info also at:

Het Weer Aktueel

UK Metoffice

European Weather Network

WeatherCloud

Weather Underground

benelux weather network

AWEKAS

WeatherlinkIP

Citizen Weather Observer Program (CWOP)

HAMweather, WeatherForYou, PWS Weather

equipment we use:

weather-station
Davis VP2+
Meteostick connected

weather-program
Meteobridge

weather-server
MeteobridgePro

Davis VP2+<br />Meteostick connected

Meteobridge

MeteobridgePro